KBTV/BTV METAR and TAF weather

Enter ICAO airport designator
Station Type Date Time Source
KBTV METAR 2018/01/22 10:54 UTC NOAA

KBTV 221054Z 32011KT 10SM OVC045 M04/M07 A3023 RMK AO2 SLP242 T10441072


Station Type Date Time Source
KBTV Decoded METAR 2018/01/22 10:54 UTC NOAA

BURLINGTON INTERNATIONAL, VT, United States (KBTV) 44-28N 73-09W 105M
Jan 22, 2018 - 05:54 AM EST / 2018.01.22 1054 UTC
Wind: from the NW (320 degrees) at 13 MPH (11 KT):0
Visibility: 10 mile(s):0
Sky conditions: overcast
Temperature: 24.1 F (-4.4 C)
Windchill: 12 F (-11 C):1
Dew Point: 19.0 F (-7.2 C)
Relative Humidity: 80%
Pressure (altimeter): 30.23 in. Hg (1023 hPa)
ob: KBTV 221054Z 32011KT 10SM OVC045 M04/M07 A3023 RMK AO2 SLP242 T10441072
cycle: 11

Station Type Date Time Source
KBTV TAF 2018/01/22 12:30 UTC NOAA

TAF KBTV 221129Z 2212/2312 34008KT P6SM OVC040
TEMPO 2212/2216 OVC015
FM221600 35004KT P6SM VCSH OVC015
FM222100 35004KT 3SM -SN BR OVC010
FM230000 15007KT 1SM -SNRA BR OVC008
FM230200 17008KT 2SM -RA BR OVC010
FM230600 17008G18KT P6SM VCSH OVC015


Example: see airport list